ANA9029 RJCN-RJCC
Flight info
| Callsign | ANA9029 |
|---|---|
| Flight time | 0h 38m |
| Altitude | 22000 |
| Route | ENKAT Y134 NODUK Y14 BOKSO V5 CHE |
| Aircraft | B77W/H-SDE1E2E3FGHIJ2J3J4J5M1RWXY/LB1D1 |
Departure
| Time | 2026-05-06 17:36 |
|---|---|
| Airport | Nakashibetsu Airport (RJCN) |
Arrival
| Time | 2026-05-06 18:14 |
|---|---|
| Airport | New Chitose Airport (RJCC) |
| Time | Latitude | Longitude | Altitude | Speed | Heading |
|---|---|---|---|---|---|
| 2026-05-06 17:10 | 43.57372 | 144.95659 | 247 ft | 0 kts | 158° |
| 2026-05-06 17:25 | 43.57384 | 144.95650 | 244 ft | 2 kts | 144° |
| 2026-05-06 17:26 | 43.57397 | 144.95636 | 244 ft | 2 kts | 132° |
| 2026-05-06 17:26 | 43.57404 | 144.95624 | 244 ft | 2 kts | 121° |
| 2026-05-06 17:26 | 43.57412 | 144.95604 | 245 ft | 2 kts | 107° |
| 2026-05-06 17:26 | 43.57415 | 144.95581 | 245 ft | 2 kts | 95° |
| 2026-05-06 17:27 | 43.57416 | 144.95559 | 245 ft | 2 kts | 86° |
| 2026-05-06 17:27 | 43.57414 | 144.95536 | 245 ft | 2 kts | 79° |
| 2026-05-06 17:27 | 43.57410 | 144.95514 | 245 ft | 2 kts | 74° |
| 2026-05-06 17:27 | 43.57406 | 144.95492 | 245 ft | 2 kts | 70° |
| 2026-05-06 17:28 | 43.57405 | 144.95490 | 245 ft | 0 kts | 70° |
| 2026-05-06 17:29 | 43.57405 | 144.95491 | 245 ft | 2 kts | 70° |
| 2026-05-06 17:30 | 43.57440 | 144.95533 | 245 ft | 6 kts | 6° |
| 2026-05-06 17:30 | 43.57487 | 144.95522 | 245 ft | 7 kts | 342° |
| 2026-05-06 17:30 | 43.57503 | 144.95514 | 245 ft | 0 kts | 341° |
| 2026-05-06 17:31 | 43.57512 | 144.95510 | 245 ft | 3 kts | 341° |
| 2026-05-06 17:31 | 43.57547 | 144.95493 | 245 ft | 8 kts | 341° |
| 2026-05-06 17:31 | 43.57596 | 144.95447 | 245 ft | 9 kts | 300° |
| 2026-05-06 17:31 | 43.57592 | 144.95364 | 247 ft | 9 kts | 251° |
| 2026-05-06 17:32 | 43.57569 | 144.95283 | 248 ft | 9 kts | 249° |
| 2026-05-06 17:32 | 43.57548 | 144.95202 | 249 ft | 9 kts | 250° |
| 2026-05-06 17:32 | 43.57527 | 144.95120 | 251 ft | 9 kts | 250° |
| 2026-05-06 17:32 | 43.57506 | 144.95038 | 250 ft | 9 kts | 251° |
| 2026-05-06 17:33 | 43.57487 | 144.94957 | 251 ft | 9 kts | 251° |
| 2026-05-06 17:33 | 43.57446 | 144.94893 | 252 ft | 9 kts | 222° |
| 2026-05-06 17:33 | 43.57436 | 144.94834 | 253 ft | 3 kts | 305° |
| 2026-05-06 17:33 | 43.57458 | 144.94841 | 254 ft | 4 kts | 52° |
| 2026-05-06 17:34 | 43.57468 | 144.94875 | 253 ft | 0 kts | 70° |
| 2026-05-06 17:35 | 43.57534 | 144.95140 | 249 ft | 76 kts | 71° |
| 2026-05-06 17:36 | 43.58198 | 144.97878 | 1005 ft | 176 kts | 74° |
| 2026-05-06 17:36 | 43.58348 | 144.99645 | 1609 ft | 210 kts | 106° |
| 2026-05-06 17:36 | 43.57464 | 145.01176 | 2383 ft | 198 kts | 159° |
| 2026-05-06 17:36 | 43.56136 | 145.01422 | 3096 ft | 196 kts | 200° |
| 2026-05-06 17:37 | 43.55042 | 145.00325 | 3527 ft | 206 kts | 245° |
| 2026-05-06 17:37 | 43.54588 | 144.98580 | 4600 ft | 181 kts | 249° |
| 2026-05-06 17:37 | 43.54026 | 144.97062 | 5513 ft | 181 kts | 246° |
| 2026-05-06 17:37 | 43.53539 | 144.95362 | 5829 ft | 203 kts | 258° |
| 2026-05-06 17:38 | 43.53161 | 144.93345 | 6119 ft | 233 kts | 255° |
| 2026-05-06 17:38 | 43.52662 | 144.91166 | 6885 ft | 242 kts | 253° |
| 2026-05-06 17:38 | 43.52117 | 144.88945 | 7783 ft | 246 kts | 252° |
| 2026-05-06 17:38 | 43.51544 | 144.86722 | 8797 ft | 247 kts | 251° |
| 2026-05-06 17:39 | 43.50961 | 144.84520 | 9760 ft | 249 kts | 250° |
| 2026-05-06 17:39 | 43.50353 | 144.82252 | 10540 ft | 258 kts | 250° |
| 2026-05-06 17:39 | 43.49693 | 144.79805 | 10832 ft | 287 kts | 250° |
| 2026-05-06 17:39 | 43.48970 | 144.77086 | 11074 ft | 317 kts | 250° |
| 2026-05-06 17:40 | 43.48220 | 144.74117 | 11576 ft | 336 kts | 251° |
| 2026-05-06 17:40 | 43.47445 | 144.71023 | 12505 ft | 346 kts | 251° |
| 2026-05-06 17:40 | 43.46653 | 144.67868 | 13590 ft | 352 kts | 250° |
| 2026-05-06 17:40 | 43.45845 | 144.64667 | 14605 ft | 357 kts | 250° |
| 2026-05-06 17:41 | 43.45020 | 144.61417 | 15614 ft | 362 kts | 250° |
| 2026-05-06 17:41 | 43.44201 | 144.58112 | 16585 ft | 368 kts | 252° |
| 2026-05-06 17:41 | 43.43468 | 144.54709 | 17560 ft | 374 kts | 254° |
| 2026-05-06 17:41 | 43.42766 | 144.51238 | 18482 ft | 379 kts | 254° |
| 2026-05-06 17:42 | 43.42056 | 144.47724 | 19356 ft | 383 kts | 254° |
| 2026-05-06 17:42 | 43.41332 | 144.44188 | 20299 ft | 385 kts | 254° |
| 2026-05-06 17:42 | 43.40596 | 144.40645 | 21229 ft | 387 kts | 254° |
| 2026-05-06 17:42 | 43.39845 | 144.37064 | 21897 ft | 392 kts | 254° |
| 2026-05-06 17:43 | 43.39076 | 144.33405 | 21931 ft | 404 kts | 254° |
| 2026-05-06 17:43 | 43.38288 | 144.29665 | 21953 ft | 410 kts | 254° |
| 2026-05-06 17:43 | 43.37492 | 144.25889 | 21935 ft | 411 kts | 254° |
| 2026-05-06 17:43 | 43.36695 | 144.22119 | 21928 ft | 410 kts | 254° |
| 2026-05-06 17:44 | 43.35900 | 144.18358 | 21928 ft | 409 kts | 254° |
| 2026-05-06 17:44 | 43.35116 | 144.14662 | 21931 ft | 408 kts | 254° |
| 2026-05-06 17:44 | 43.34323 | 144.10921 | 21925 ft | 408 kts | 254° |
| 2026-05-06 17:44 | 43.33527 | 144.07170 | 21928 ft | 409 kts | 254° |
| 2026-05-06 17:45 | 43.32728 | 144.03417 | 21932 ft | 409 kts | 254° |
| 2026-05-06 17:45 | 43.31928 | 143.99666 | 21952 ft | 410 kts | 254° |
| 2026-05-06 17:45 | 43.31123 | 143.95904 | 21932 ft | 411 kts | 254° |
| 2026-05-06 17:45 | 43.30318 | 143.92136 | 21949 ft | 411 kts | 254° |
| 2026-05-06 17:46 | 43.29510 | 143.88368 | 21926 ft | 411 kts | 254° |
| 2026-05-06 17:46 | 43.28702 | 143.84611 | 21929 ft | 410 kts | 254° |
| 2026-05-06 17:46 | 43.27895 | 143.80856 | 21948 ft | 410 kts | 254° |
| 2026-05-06 17:46 | 43.27085 | 143.77097 | 21928 ft | 411 kts | 254° |
| 2026-05-06 17:47 | 43.26274 | 143.73338 | 21926 ft | 411 kts | 254° |
| 2026-05-06 17:47 | 43.25461 | 143.69576 | 21946 ft | 411 kts | 254° |
| 2026-05-06 17:47 | 43.24648 | 143.65820 | 21926 ft | 410 kts | 254° |
| 2026-05-06 17:47 | 43.23843 | 143.62112 | 21946 ft | 410 kts | 254° |
| 2026-05-06 17:48 | 43.23029 | 143.58366 | 21931 ft | 410 kts | 254° |
| 2026-05-06 17:48 | 43.22214 | 143.54624 | 21944 ft | 410 kts | 254° |
| 2026-05-06 17:48 | 43.21398 | 143.50876 | 21946 ft | 410 kts | 254° |
| 2026-05-06 17:48 | 43.20582 | 143.47135 | 21947 ft | 410 kts | 254° |
| 2026-05-06 17:49 | 43.19762 | 143.43386 | 21929 ft | 409 kts | 254° |
| 2026-05-06 17:49 | 43.18944 | 143.39649 | 21930 ft | 409 kts | 254° |
| 2026-05-06 17:49 | 43.18126 | 143.35917 | 21953 ft | 409 kts | 254° |
| 2026-05-06 17:49 | 43.17305 | 143.32180 | 21929 ft | 409 kts | 254° |
| 2026-05-06 17:50 | 43.16486 | 143.28458 | 21958 ft | 408 kts | 254° |
| 2026-05-06 17:50 | 43.15664 | 143.24733 | 21936 ft | 408 kts | 254° |
| 2026-05-06 17:50 | 43.14843 | 143.21014 | 21953 ft | 408 kts | 254° |
| 2026-05-06 17:50 | 43.14019 | 143.17285 | 21936 ft | 408 kts | 254° |
| 2026-05-06 17:51 | 43.13196 | 143.13567 | 21952 ft | 408 kts | 254° |
| 2026-05-06 17:51 | 43.12372 | 143.09853 | 21957 ft | 408 kts | 254° |
| 2026-05-06 17:51 | 43.11539 | 143.06137 | 21944 ft | 408 kts | 253° |
| 2026-05-06 17:51 | 43.10510 | 143.02565 | 21963 ft | 409 kts | 247° |
| 2026-05-06 17:52 | 43.09217 | 142.99087 | 21939 ft | 410 kts | 243° |
| 2026-05-06 17:52 | 43.07765 | 142.95717 | 21944 ft | 411 kts | 239° |
| 2026-05-06 17:52 | 43.06098 | 142.92525 | 21970 ft | 412 kts | 236° |
| 2026-05-06 17:52 | 43.04367 | 142.89401 | 21942 ft | 413 kts | 236° |
| 2026-05-06 17:53 | 43.02625 | 142.86283 | 21963 ft | 413 kts | 236° |
| 2026-05-06 17:53 | 43.00877 | 142.83154 | 21943 ft | 413 kts | 236° |
| 2026-05-06 17:53 | 42.99139 | 142.80032 | 21965 ft | 413 kts | 236° |
| 2026-05-06 17:53 | 42.97399 | 142.76899 | 21963 ft | 414 kts | 236° |
| 2026-05-06 17:54 | 42.95664 | 142.73767 | 21970 ft | 414 kts | 236° |
| 2026-05-06 17:54 | 42.93924 | 142.70624 | 21966 ft | 415 kts | 236° |
| 2026-05-06 17:54 | 42.92181 | 142.67481 | 21974 ft | 415 kts | 236° |
| 2026-05-06 17:54 | 42.90433 | 142.64332 | 21982 ft | 416 kts | 236° |
| 2026-05-06 17:55 | 42.88711 | 142.61233 | 21973 ft | 412 kts | 236° |
| 2026-05-06 17:55 | 42.87000 | 142.58160 | 21956 ft | 399 kts | 236° |
| 2026-05-06 17:55 | 42.85349 | 142.55200 | 21955 ft | 385 kts | 236° |
| 2026-05-06 17:55 | 42.83750 | 142.52332 | 21643 ft | 376 kts | 236° |
| 2026-05-06 17:56 | 42.82252 | 142.49466 | 21186 ft | 367 kts | 242° |
| 2026-05-06 17:56 | 42.81115 | 142.46390 | 20668 ft | 362 kts | 248° |
| 2026-05-06 17:56 | 42.80209 | 142.43211 | 20084 ft | 359 kts | 252° |
| 2026-05-06 17:56 | 42.79571 | 142.39923 | 19514 ft | 358 kts | 259° |
| 2026-05-06 17:57 | 42.79123 | 142.36596 | 18939 ft | 357 kts | 259° |
| 2026-05-06 17:57 | 42.78700 | 142.33270 | 18348 ft | 357 kts | 259° |
| 2026-05-06 17:57 | 42.78278 | 142.29949 | 17691 ft | 355 kts | 259° |
| 2026-05-06 17:57 | 42.77853 | 142.26642 | 17097 ft | 354 kts | 259° |
| 2026-05-06 17:58 | 42.77424 | 142.23357 | 16506 ft | 352 kts | 259° |
| 2026-05-06 17:58 | 42.76992 | 142.20088 | 15917 ft | 350 kts | 259° |
| 2026-05-06 17:58 | 42.76566 | 142.16875 | 15363 ft | 348 kts | 259° |
| 2026-05-06 17:58 | 42.76133 | 142.13628 | 14700 ft | 349 kts | 259° |
| 2026-05-06 17:59 | 42.75747 | 142.10753 | 14119 ft | 350 kts | 259° |
| 2026-05-06 17:59 | 42.75310 | 142.07500 | 13511 ft | 349 kts | 259° |
| 2026-05-06 17:59 | 42.74874 | 142.04265 | 12952 ft | 346 kts | 259° |
| 2026-05-06 17:59 | 42.74443 | 142.01063 | 12425 ft | 342 kts | 259° |
| 2026-05-06 18:00 | 42.74016 | 141.97900 | 11995 ft | 336 kts | 259° |
| 2026-05-06 18:00 | 42.73601 | 141.94852 | 11923 ft | 320 kts | 259° |
| 2026-05-06 18:00 | 42.73213 | 141.91995 | 11771 ft | 296 kts | 259° |
| 2026-05-06 18:00 | 42.72854 | 141.89350 | 11613 ft | 273 kts | 258° |
| 2026-05-06 18:01 | 42.72517 | 141.86889 | 11358 ft | 258 kts | 258° |
| 2026-05-06 18:01 | 42.72195 | 141.84541 | 10960 ft | 249 kts | 258° |
| 2026-05-06 18:01 | 42.71899 | 141.82249 | 10685 ft | 240 kts | 264° |
| 2026-05-06 18:01 | 42.72119 | 141.80068 | 10578 ft | 236 kts | 287° |
| 2026-05-06 18:02 | 42.72974 | 141.78148 | 10493 ft | 247 kts | 305° |
| 2026-05-06 18:02 | 42.74377 | 141.76635 | 10398 ft | 271 kts | 326° |
| 2026-05-06 18:02 | 42.76261 | 141.75947 | 10259 ft | 291 kts | 353° |
| 2026-05-06 18:02 | 42.78249 | 141.76618 | 10119 ft | 301 kts | 25° |
| 2026-05-06 18:03 | 42.79940 | 141.78229 | 10005 ft | 293 kts | 32° |
| 2026-05-06 18:03 | 42.81578 | 141.79912 | 9680 ft | 297 kts | 32° |
| 2026-05-06 18:03 | 42.83254 | 141.81612 | 9359 ft | 303 kts | 32° |
| 2026-05-06 18:03 | 42.84967 | 141.83327 | 9035 ft | 307 kts | 32° |
| 2026-05-06 18:04 | 42.86696 | 141.85045 | 8693 ft | 308 kts | 32° |
| 2026-05-06 18:04 | 42.88437 | 141.86742 | 8329 ft | 303 kts | 26° |
| 2026-05-06 18:04 | 42.90353 | 141.87694 | 8001 ft | 288 kts | 0° |
| 2026-05-06 18:04 | 42.92276 | 141.87612 | 7699 ft | 276 kts | 343° |
| 2026-05-06 18:05 | 42.94170 | 141.87176 | 7387 ft | 275 kts | 343° |
| 2026-05-06 18:05 | 42.96062 | 141.86741 | 7067 ft | 276 kts | 343° |
| 2026-05-06 18:05 | 42.97956 | 141.86308 | 6768 ft | 276 kts | 343° |
| 2026-05-06 18:05 | 42.99849 | 141.85880 | 6471 ft | 275 kts | 343° |
| 2026-05-06 18:06 | 43.01738 | 141.85462 | 6172 ft | 275 kts | 344° |
| 2026-05-06 18:06 | 43.03627 | 141.85045 | 5879 ft | 275 kts | 344° |
| 2026-05-06 18:06 | 43.05426 | 141.84403 | 5549 ft | 259 kts | 325° |
| 2026-05-06 18:06 | 43.06710 | 141.82830 | 5311 ft | 243 kts | 297° |
| 2026-05-06 18:07 | 43.07302 | 141.80727 | 5051 ft | 234 kts | 276° |
| 2026-05-06 18:07 | 43.07296 | 141.78533 | 4818 ft | 230 kts | 261° |
| 2026-05-06 18:07 | 43.06833 | 141.76474 | 4551 ft | 225 kts | 240° |
| 2026-05-06 18:07 | 43.05925 | 141.74793 | 4330 ft | 222 kts | 232° |
| 2026-05-06 18:08 | 43.04934 | 141.73187 | 4081 ft | 221 kts | 231° |
| 2026-05-06 18:08 | 43.03947 | 141.71579 | 3864 ft | 219 kts | 231° |
| 2026-05-06 18:08 | 43.02978 | 141.69982 | 3616 ft | 218 kts | 231° |
| 2026-05-06 18:08 | 43.02013 | 141.68384 | 3397 ft | 219 kts | 231° |
| 2026-05-06 18:09 | 43.01035 | 141.66792 | 3201 ft | 218 kts | 224° |
| 2026-05-06 18:09 | 42.99718 | 141.65795 | 2897 ft | 221 kts | 191° |
| 2026-05-06 18:09 | 42.98194 | 141.65693 | 2739 ft | 220 kts | 184° |
| 2026-05-06 18:09 | 42.96641 | 141.65708 | 2433 ft | 226 kts | 178° |
| 2026-05-06 18:10 | 42.95078 | 141.65918 | 2203 ft | 225 kts | 175° |
| 2026-05-06 18:10 | 42.93556 | 141.66197 | 2054 ft | 221 kts | 173° |
| 2026-05-06 18:10 | 42.92060 | 141.66476 | 2008 ft | 214 kts | 174° |
| 2026-05-06 18:10 | 42.90611 | 141.66728 | 1948 ft | 205 kts | 174° |
| 2026-05-06 18:11 | 42.89226 | 141.66968 | 1935 ft | 196 kts | 174° |
| 2026-05-06 18:11 | 42.88336 | 141.67127 | 1956 ft | 184 kts | 173° |
| 2026-05-06 18:11 | 42.86716 | 141.67421 | 1699 ft | 169 kts | 174° |
| 2026-05-06 18:11 | 42.85604 | 141.67618 | 1466 ft | 155 kts | 173° |
| 2026-05-06 18:12 | 42.84923 | 141.67739 | 1360 ft | 142 kts | 173° |
| 2026-05-06 18:12 | 42.83996 | 141.67899 | 1130 ft | 128 kts | 172° |
| 2026-05-06 18:12 | 42.83110 | 141.68056 | 950 ft | 128 kts | 172° |
| 2026-05-06 18:12 | 42.82225 | 141.68213 | 805 ft | 132 kts | 171° |
| 2026-05-06 18:13 | 42.81294 | 141.68383 | 618 ft | 136 kts | 171° |
| 2026-05-06 18:13 | 42.80344 | 141.68562 | 406 ft | 138 kts | 171° |
| 2026-05-06 18:13 | 42.79395 | 141.68713 | 233 ft | 135 kts | 171° |
| 2026-05-06 18:13 | 42.78237 | 141.68921 | 66 ft | 110 kts | 171° |
| 2026-05-06 18:14 | 42.77808 | 141.68994 | 65 ft | 74 kts | 173° |
| 2026-05-06 18:14 | 42.77480 | 141.69053 | 64 ft | 26 kts | 173° |
| 2026-05-06 18:14 | 42.77300 | 141.69064 | 68 ft | 26 kts | 184° |
| 2026-05-06 18:14 | 42.77152 | 141.69009 | 70 ft | 17 kts | 200° |
| 2026-05-06 18:15 | 42.77096 | 141.68918 | 65 ft | 14 kts | 290° |
| 2026-05-06 18:15 | 42.77189 | 141.68874 | 64 ft | 15 kts | 352° |
| 2026-05-06 18:15 | 42.77290 | 141.68855 | 68 ft | 15 kts | 353° |
| 2026-05-06 18:15 | 42.77391 | 141.68837 | 66 ft | 15 kts | 352° |
| 2026-05-06 18:16 | 42.77492 | 141.68817 | 65 ft | 15 kts | 351° |
| 2026-05-06 18:16 | 42.77594 | 141.68800 | 65 ft | 15 kts | 355° |
| 2026-05-06 18:16 | 42.77695 | 141.68789 | 66 ft | 15 kts | 355° |
| 2026-05-06 18:16 | 42.77797 | 141.68768 | 66 ft | 15 kts | 350° |
| 2026-05-06 18:17 | 42.77899 | 141.68746 | 63 ft | 15 kts | 355° |
| 2026-05-06 18:17 | 42.78004 | 141.68731 | 68 ft | 15 kts | 353° |
| 2026-05-06 18:17 | 42.78109 | 141.68713 | 68 ft | 15 kts | 352° |
| 2026-05-06 18:17 | 42.78214 | 141.68694 | 64 ft | 15 kts | 353° |
| 2026-05-06 18:18 | 42.78318 | 141.68675 | 70 ft | 15 kts | 352° |
| 2026-05-06 18:18 | 42.78423 | 141.68656 | 68 ft | 16 kts | 352° |
| 2026-05-06 18:18 | 42.78530 | 141.68639 | 66 ft | 16 kts | 353° |
| 2026-05-06 18:18 | 42.78637 | 141.68620 | 68 ft | 14 kts | 353° |
| 2026-05-06 18:19 | 42.78672 | 141.68543 | 67 ft | 11 kts | 267° |
| 2026-05-06 18:19 | 42.78683 | 141.68443 | 66 ft | 11 kts | 309° |
| 2026-05-06 18:19 | 42.78757 | 141.68414 | 65 ft | 11 kts | 353° |
| 2026-05-06 18:19 | 42.78834 | 141.68397 | 67 ft | 11 kts | 345° |
| 2026-05-06 18:20 | 42.78910 | 141.68362 | 66 ft | 12 kts | 335° |
| 2026-05-06 18:20 | 42.78979 | 141.68306 | 62 ft | 11 kts | 325° |
| 2026-05-06 18:20 | 42.78994 | 141.68246 | 65 ft | 6 kts | 245° |
| 2026-05-06 18:20 | 42.78967 | 141.68201 | 67 ft | 6 kts | 225° |
| 2026-05-06 18:21 | 42.78952 | 141.68179 | 64 ft | 0 kts | 226° |
| 2026-05-06 18:21 | 42.78951 | 141.68179 | 64 ft | 0 kts | 226° |